createdAt,value
2023-01-27T00:00:52.638Z,5.01
2023-01-27T00:03:20.145Z,4.90
2023-01-27T00:05:47.894Z,4.91
2023-01-27T00:08:15.070Z,5.04
2023-01-27T00:10:42.274Z,4.77
2023-01-27T00:13:27.180Z,5.11
2023-01-27T00:15:54.236Z,4.80
2023-01-27T00:18:21.264Z,5.12
2023-01-27T00:21:06.631Z,5.13
2023-01-27T00:23:52.064Z,5.14
2023-01-27T00:26:19.419Z,5.04
2023-01-27T00:28:47.143Z,4.94
2023-01-27T00:31:33.571Z,4.92
2023-01-27T00:34:09.643Z,5.04
2023-01-27T00:36:38.215Z,4.91
2023-01-27T00:39:06.061Z,4.85
2023-01-27T00:41:34.351Z,5.06
2023-01-27T00:44:02.051Z,4.94
2023-01-27T00:46:29.058Z,4.93
2023-01-27T00:48:56.055Z,5.08
2023-01-27T00:51:23.188Z,4.88
2023-01-27T00:53:50.189Z,4.99
2023-01-27T00:56:17.136Z,5.10
2023-01-27T00:58:44.033Z,5.21
2023-01-27T01:01:13.086Z,5.03
2023-01-27T01:03:40.107Z,4.99
2023-01-27T01:06:12.154Z,4.86
2023-01-27T01:08:39.353Z,4.86
2023-01-27T01:11:08.981Z,4.95
2023-01-27T01:13:35.897Z,4.99
2023-01-27T01:16:07.878Z,5.08
2023-01-27T01:18:34.889Z,4.72
2023-01-27T01:21:01.899Z,5.14
2023-01-27T01:23:28.952Z,4.80
2023-01-27T01:25:57.264Z,5.12
2023-01-27T01:28:24.797Z,5.03
2023-01-27T01:30:52.016Z,4.99
2023-01-27T01:33:19.081Z,4.69
2023-01-27T01:35:46.032Z,4.95
2023-01-27T01:38:13.149Z,4.57
2023-01-27T01:40:42.270Z,4.97
2023-01-27T01:43:15.047Z,4.95
2023-01-27T01:45:53.211Z,4.99
2023-01-27T01:48:42.627Z,4.97
2023-01-27T01:51:10.881Z,4.94
2023-01-27T01:53:45.261Z,4.81
2023-01-27T01:56:18.057Z,4.60
2023-01-27T01:58:45.208Z,4.20
2023-01-27T02:03:57.474Z,4.85
2023-01-27T02:06:24.389Z,4.62
2023-01-27T02:08:51.946Z,4.74
2023-01-27T02:11:19.060Z,4.58
2023-01-27T02:13:46.240Z,4.53
2023-01-27T02:16:13.456Z,4.30
2023-01-27T02:18:40.510Z,4.85
2023-01-27T02:21:07.750Z,4.84
2023-01-27T02:23:34.512Z,4.85
2023-01-27T02:26:34.563Z,4.81
2023-01-27T02:29:07.622Z,4.72
2023-01-27T02:31:34.721Z,4.84
2023-01-27T02:34:06.732Z,4.06
2023-01-27T02:36:36.576Z,4.45
2023-01-27T02:39:03.524Z,4.77
2023-01-27T02:42:09.514Z,4.78
2023-01-27T02:44:36.770Z,4.78
2023-01-27T02:47:03.682Z,4.61
2023-01-27T02:49:30.633Z,4.45
2023-01-27T02:51:57.628Z,4.47
2023-01-27T02:54:27.829Z,4.77
2023-01-27T02:56:54.741Z,4.19
2023-01-27T02:59:21.701Z,4.66
2023-01-27T03:01:48.685Z,4.54
2023-01-27T03:04:16.221Z,4.78
2023-01-27T03:06:43.183Z,4.65
2023-01-27T03:09:10.078Z,4.53
2023-01-27T03:11:55.602Z,4.80
2023-01-27T03:14:22.667Z,4.74
2023-01-27T03:17:08.089Z,4.62
2023-01-27T03:19:35.101Z,4.78
2023-01-27T03:22:03.431Z,4.59
2023-01-27T03:24:30.570Z,4.73
2023-01-27T03:26:57.626Z,4.81
2023-01-27T03:29:43.055Z,4.90
2023-01-27T03:32:09.977Z,4.78
2023-01-27T03:34:37.030Z,4.67
2023-01-27T03:37:22.558Z,4.72
2023-01-27T03:40:08.000Z,4.69
2023-01-27T03:42:53.550Z,4.12
2023-01-27T03:45:39.141Z,4.79
2023-01-27T03:48:06.085Z,4.56
2023-01-27T03:50:43.300Z,4.25
2023-01-27T03:53:11.031Z,4.70
2023-01-27T03:55:38.563Z,4.69
2023-01-27T03:58:18.356Z,4.89
2023-01-27T04:00:53.609Z,4.81
2023-01-27T04:03:40.233Z,4.34
2023-01-27T04:06:28.667Z,4.62
2023-01-27T04:08:55.726Z,4.60
2023-01-27T04:11:41.773Z,4.32
2023-01-27T04:14:09.559Z,4.77
2023-01-27T04:16:36.914Z,4.77
2023-01-27T04:19:05.300Z,4.48
2023-01-27T04:21:32.378Z,4.41
2023-01-27T04:24:00.159Z,4.66
2023-01-27T04:26:33.286Z,4.70
2023-01-27T04:29:01.604Z,4.78
2023-01-27T04:31:30.894Z,4.68
2023-01-27T04:33:58.082Z,4.71
2023-01-27T04:36:25.382Z,4.60
2023-01-27T04:38:52.334Z,4.30
2023-01-27T04:41:19.278Z,4.56
2023-01-27T04:43:46.318Z,4.57
2023-01-27T06:03:00.641Z,4.33
2023-01-27T06:05:27.792Z,4.63
2023-01-27T06:07:56.287Z,4.50
2023-01-27T06:10:24.531Z,4.70
2023-01-27T06:12:51.412Z,4.54
2023-01-27T06:15:18.308Z,4.70
2023-01-27T06:17:45.209Z,4.63
2023-01-27T06:20:12.318Z,4.69
2023-01-27T06:22:39.260Z,4.54
2023-01-27T06:25:06.581Z,4.61
2023-01-27T06:27:33.497Z,4.66
2023-01-27T06:30:00.396Z,4.51
2023-01-27T06:32:27.856Z,4.35
2023-01-27T06:34:54.867Z,4.49
2023-01-27T06:37:21.754Z,4.62
2023-01-27T06:39:48.659Z,4.41
2023-01-27T06:42:16.065Z,4.19
2023-01-27T06:44:43.067Z,4.62
2023-01-27T06:47:09.964Z,4.32
2023-01-27T06:49:36.983Z,4.18
2023-01-27T06:52:03.892Z,4.63
2023-01-27T06:54:30.787Z,4.39
2023-01-27T06:56:58.000Z,4.45
2023-01-27T06:59:24.885Z,4.52
2023-01-27T07:01:51.879Z,4.31
2023-01-27T07:04:18.843Z,4.64
2023-01-27T07:06:46.262Z,4.66
2023-01-27T07:09:13.174Z,4.55
2023-01-27T07:11:40.090Z,4.50
2023-01-27T07:14:09.587Z,4.40
2023-01-27T07:16:37.355Z,4.48
2023-01-27T07:19:04.380Z,4.38
2023-01-27T07:21:31.379Z,4.55
2023-01-27T07:24:01.337Z,4.54
2023-01-27T07:26:28.946Z,4.33
2023-01-27T07:28:56.534Z,4.11
2023-01-27T07:31:23.891Z,4.15
2023-01-27T07:33:51.034Z,4.67
2023-01-27T07:36:17.995Z,4.34
2023-01-27T07:38:45.088Z,4.42
2023-01-27T07:41:12.097Z,4.32
2023-01-27T07:43:39.113Z,4.46
2023-01-27T07:46:06.155Z,4.06
2023-01-27T07:48:33.349Z,4.25
2023-01-27T07:51:00.464Z,4.57
2023-01-27T07:53:27.611Z,4.50
2023-01-27T07:55:54.662Z,4.22
2023-01-27T07:58:22.190Z,4.38
2023-01-27T08:00:49.575Z,4.04
2023-01-27T08:03:27.728Z,4.23
2023-01-27T08:05:54.736Z,4.25
2023-01-27T08:08:21.709Z,4.60
2023-01-27T08:10:51.393Z,4.41
2023-01-27T08:13:18.422Z,4.39
2023-01-27T08:15:45.974Z,4.23
2023-01-27T08:18:12.866Z,4.53
2023-01-27T08:20:39.849Z,4.40
2023-01-27T08:23:06.736Z,4.57
2023-01-27T08:25:33.779Z,4.31
2023-01-27T08:28:00.665Z,4.36
2023-01-27T08:30:27.885Z,4.22
2023-01-27T08:32:55.238Z,4.11
2023-01-27T08:35:22.169Z,4.52
2023-01-27T08:37:49.185Z,4.20
2023-01-27T08:40:16.459Z,4.48
2023-01-27T08:42:43.403Z,4.48
2023-01-27T08:45:10.416Z,4.31
2023-01-27T08:47:37.304Z,4.30
2023-01-27T08:50:04.365Z,4.20
2023-01-27T08:52:31.266Z,4.35
2023-01-27T08:54:58.938Z,4.23
2023-01-27T08:57:25.910Z,4.18
2023-01-27T08:59:52.836Z,3.97
2023-01-27T09:02:22.472Z,4.10
2023-01-27T09:04:49.418Z,4.41
2023-01-27T09:07:16.880Z,4.58
2023-01-27T09:09:46.950Z,4.28
2023-01-27T09:12:13.891Z,4.45
2023-01-27T09:14:40.814Z,4.30
2023-01-27T09:17:07.782Z,4.42
2023-01-27T09:19:34.689Z,4.68
2023-01-27T09:22:02.356Z,4.59
2023-01-27T09:24:32.296Z,4.47
2023-01-27T09:27:01.054Z,4.88
2023-01-27T09:29:29.963Z,4.78
2023-01-27T09:31:56.941Z,4.80
2023-01-27T09:34:23.928Z,5.01
2023-01-27T09:36:56.665Z,5.12
2023-01-27T09:39:24.339Z,5.00
2023-01-27T09:42:31.028Z,5.52
2023-01-27T09:45:22.709Z,5.69
2023-01-27T09:47:52.348Z,5.81
2023-01-27T09:50:48.880Z,5.92
2023-01-27T09:53:48.128Z,6.04
2023-01-27T09:56:23.043Z,6.10
2023-01-27T09:59:30.533Z,6.13
2023-01-27T10:02:11.016Z,6.18
2023-01-27T10:05:22.157Z,6.22
2023-01-27T10:08:10.863Z,6.34
2023-01-27T10:11:03.772Z,6.46
2023-01-27T10:13:50.028Z,6.56
2023-01-27T10:16:26.276Z,6.67
2023-01-27T10:19:40.294Z,6.78
2023-01-27T10:22:21.566Z,6.78
2023-01-27T10:25:24.670Z,6.72
2023-01-27T10:28:00.021Z,6.35
2023-01-27T10:30:35.238Z,6.31
2023-01-27T10:33:18.683Z,6.52
2023-01-27T10:36:11.301Z,6.44
2023-01-27T10:39:01.385Z,6.38
2023-01-27T10:41:37.487Z,5.96
2023-01-27T10:44:48.732Z,6.31
2023-01-27T10:47:47.752Z,6.20
2023-01-27T10:50:23.719Z,6.04
2023-01-27T10:53:17.611Z,6.10
2023-01-27T10:55:59.871Z,6.14
2023-01-27T10:58:51.477Z,6.21
2023-01-27T11:01:22.222Z,5.79
2023-01-27T11:03:56.065Z,6.07
2023-01-27T11:06:25.191Z,5.99
2023-01-27T11:09:13.387Z,5.97
2023-01-27T11:11:46.488Z,6.08
2023-01-27T11:14:30.270Z,5.90
2023-01-27T11:17:23.176Z,5.81
2023-01-27T11:20:18.316Z,5.91
2023-01-27T11:22:52.338Z,6.00
2023-01-27T11:25:24.051Z,6.00
2023-01-27T11:28:01.452Z,5.89
2023-01-27T11:30:34.419Z,5.62
2023-01-27T11:33:19.598Z,5.92
2023-01-27T11:35:46.863Z,5.62
2023-01-27T11:38:16.874Z,5.55
2023-01-27T11:40:43.825Z,5.68
2023-01-27T11:43:15.068Z,5.96
2023-01-27T11:45:41.992Z,5.58
2023-01-27T11:48:15.292Z,5.88
2023-01-27T11:50:42.963Z,4.99
2023-01-27T11:53:16.430Z,5.63
2023-01-27T11:55:46.379Z,5.94
2023-01-27T11:58:24.264Z,5.94
2023-01-27T12:00:53.263Z,5.80
2023-01-27T12:03:41.400Z,5.92
2023-01-27T12:06:13.694Z,5.87
2023-01-27T12:08:45.958Z,5.65
2023-01-27T12:11:20.583Z,5.75
2023-01-27T12:13:54.647Z,5.84
2023-01-27T12:16:23.171Z,5.56
2023-01-27T12:18:55.798Z,5.62
2023-01-27T12:21:33.757Z,5.54
2023-01-27T12:24:00.837Z,5.54
2023-01-27T12:26:37.481Z,5.78
2023-01-27T12:29:12.879Z,5.24
2023-01-27T12:31:46.357Z,5.54
2023-01-27T12:34:31.816Z,5.57
2023-01-27T12:37:01.261Z,5.23
2023-01-27T12:39:40.045Z,5.40
2023-01-27T12:42:31.214Z,5.40
2023-01-27T12:45:07.366Z,5.38
2023-01-27T12:47:34.383Z,5.14
2023-01-27T12:50:23.030Z,5.60
2023-01-27T12:53:15.755Z,5.31
2023-01-27T12:56:19.527Z,5.57
2023-01-27T12:58:55.548Z,5.55
2023-01-27T13:01:37.528Z,5.34
2023-01-27T13:04:09.784Z,5.21
2023-01-27T13:06:49.761Z,5.52
2023-01-27T13:09:52.794Z,5.51
2023-01-27T13:12:28.806Z,5.20
2023-01-27T13:15:24.257Z,5.20
2023-01-27T13:17:54.823Z,5.37
2023-01-27T13:20:31.015Z,5.48
2023-01-27T13:23:31.007Z,5.42
2023-01-27T13:26:10.564Z,5.48
2023-01-27T13:29:06.006Z,5.47
2023-01-27T13:31:54.068Z,5.32
2023-01-27T13:34:46.027Z,5.26
2023-01-27T13:37:41.211Z,5.21
2023-01-27T13:40:25.520Z,5.46
2023-01-27T13:43:01.684Z,4.96
2023-01-27T13:45:42.413Z,5.47
2023-01-27T13:48:26.213Z,5.45
2023-01-27T13:51:03.889Z,5.34
2023-01-27T13:53:30.977Z,5.28
2023-01-27T13:56:19.562Z,5.50
2023-01-27T13:59:17.425Z,5.52
2023-01-27T14:02:22.787Z,5.54
2023-01-27T14:04:56.227Z,5.27
2023-01-27T14:07:45.048Z,5.04
2023-01-27T14:10:24.845Z,5.49
2023-01-27T14:13:03.886Z,5.46
2023-01-27T14:16:02.392Z,5.36
2023-01-27T14:18:43.971Z,5.34
2023-01-27T14:21:17.550Z,5.43
2023-01-27T14:24:01.853Z,5.43
2023-01-27T14:26:35.583Z,5.33
2023-01-27T14:29:28.140Z,5.42
2023-01-27T14:32:33.056Z,5.24
2023-01-27T14:35:21.079Z,5.39
2023-01-27T14:38:05.416Z,4.95
2023-01-27T14:40:54.311Z,5.36
2023-01-27T14:43:39.650Z,5.37
2023-01-27T14:46:32.712Z,5.38
2023-01-27T14:49:14.845Z,5.06
2023-01-27T14:52:09.907Z,5.19
2023-01-27T14:55:02.693Z,5.37
2023-01-27T14:58:06.196Z,5.36
2023-01-27T15:00:49.127Z,5.35
2023-01-27T15:03:43.251Z,5.33
2023-01-27T15:06:31.901Z,5.34
2023-01-27T15:09:04.062Z,5.33
2023-01-27T15:11:46.112Z,5.33
2023-01-27T15:14:49.352Z,5.28
2023-01-27T15:17:31.752Z,5.32
2023-01-27T15:20:23.563Z,5.32
2023-01-27T15:23:02.402Z,5.31
2023-01-27T15:25:38.047Z,4.95
2023-01-27T15:28:05.421Z,5.28
2023-01-27T15:30:38.185Z,5.24
2023-01-27T15:33:42.645Z,5.33
2023-01-27T15:36:36.397Z,5.26
2023-01-27T15:39:09.271Z,5.28
2023-01-27T15:41:51.966Z,4.80
2023-01-27T15:44:26.446Z,5.03
2023-01-27T15:46:54.600Z,4.69
2023-01-27T15:49:26.359Z,4.84
2023-01-27T15:51:57.804Z,4.72
2023-01-27T15:54:32.018Z,5.03
2023-01-27T15:57:00.636Z,5.21
2023-01-27T15:59:30.620Z,4.64
2023-01-27T16:02:17.694Z,4.71
2023-01-27T16:04:44.811Z,4.99
2023-01-27T16:07:24.291Z,4.88
2023-01-27T16:09:51.581Z,5.16
2023-01-27T16:12:24.532Z,5.17
2023-01-27T16:15:16.334Z,5.16
2023-01-27T16:17:59.741Z,5.14
2023-01-27T16:20:31.693Z,4.85
2023-01-27T16:23:02.177Z,4.96
2023-01-27T16:25:53.341Z,5.09
2023-01-27T16:28:38.680Z,4.85
2023-01-27T16:31:16.757Z,4.76
2023-01-27T16:33:48.464Z,5.17
2023-01-27T16:36:30.451Z,3.80
2023-01-27T16:39:23.749Z,4.66
2023-01-27T16:41:55.524Z,4.75
2023-01-27T16:44:24.680Z,4.99
2023-01-27T16:46:56.894Z,4.65
2023-01-27T16:49:36.174Z,4.79
2023-01-27T16:52:04.667Z,4.98
2023-01-27T16:54:36.690Z,4.64
2023-01-27T16:57:04.905Z,4.58
2023-01-27T16:59:37.056Z,4.47
2023-01-27T17:02:06.025Z,4.58
2023-01-27T17:04:33.072Z,4.30
2023-01-27T17:07:11.953Z,4.93
2023-01-27T17:09:57.777Z,5.04
2023-01-27T17:12:29.931Z,4.98
2023-01-27T17:15:01.018Z,4.84
2023-01-27T17:17:30.310Z,4.80
2023-01-27T17:20:05.145Z,4.99
2023-01-27T17:22:35.558Z,4.99
2023-01-27T17:25:04.596Z,4.99
2023-01-27T17:27:34.352Z,4.57
2023-01-27T17:30:18.540Z,4.28
2023-01-27T17:32:50.696Z,4.58
2023-01-27T17:35:22.713Z,4.61
2023-01-27T17:37:49.759Z,4.67
2023-01-27T17:40:19.479Z,4.99
2023-01-27T17:42:46.737Z,4.60
2023-01-27T17:45:26.750Z,4.64
2023-01-27T17:47:54.196Z,4.20
2023-01-27T17:50:23.464Z,4.80
2023-01-27T17:52:52.732Z,4.77
2023-01-27T17:55:25.584Z,4.91
2023-01-27T17:58:06.816Z,4.23
2023-01-27T18:00:40.701Z,4.69
2023-01-27T18:03:25.153Z,4.45
2023-01-27T18:05:53.705Z,4.59
2023-01-27T18:08:23.520Z,4.34
2023-01-27T18:10:50.791Z,4.80
2023-01-27T18:13:20.584Z,4.81
2023-01-27T18:15:49.764Z,4.58
2023-01-27T18:18:24.199Z,4.81
2023-01-27T18:21:06.072Z,4.52
2023-01-27T18:23:51.148Z,4.62
2023-01-27T18:26:21.187Z,4.78
2023-01-27T18:29:01.069Z,3.37
2023-01-27T18:31:35.465Z,4.50
2023-01-27T18:34:18.565Z,4.73
2023-01-27T18:37:03.101Z,4.70
2023-01-27T18:39:39.622Z,4.71
2023-01-27T18:42:15.738Z,4.52
2023-01-27T18:44:42.767Z,4.59
2023-01-27T18:47:18.818Z,4.66
2023-01-27T18:49:59.117Z,4.66
2023-01-27T18:52:26.678Z,3.74
2023-01-27T18:55:17.263Z,4.21
2023-01-27T18:57:48.701Z,4.63
2023-01-27T19:00:21.100Z,4.42
2023-01-27T19:02:49.776Z,4.47
2023-01-27T19:05:24.669Z,4.55
2023-01-27T19:07:51.616Z,4.58
2023-01-27T19:10:23.944Z,4.67
2023-01-27T19:12:52.044Z,4.34
2023-01-27T19:15:23.864Z,4.37
2023-01-27T19:17:52.315Z,4.25
2023-01-27T19:20:23.870Z,4.63
2023-01-27T19:22:51.529Z,4.25
2023-01-27T19:25:18.563Z,4.32
2023-01-27T19:27:48.621Z,4.57
2023-01-27T19:30:20.310Z,4.67
2023-01-27T19:32:47.354Z,4.39
2023-01-27T19:35:17.468Z,4.66
2023-01-27T19:37:44.770Z,4.60
2023-01-27T19:40:19.725Z,4.61
2023-01-27T19:42:47.206Z,4.62
2023-01-27T19:45:15.636Z,4.34
2023-01-27T19:47:45.173Z,4.45
2023-01-27T19:50:26.015Z,3.94
2023-01-27T19:52:52.927Z,4.56
2023-01-27T19:55:20.891Z,4.60
2023-01-27T19:57:48.528Z,4.55
2023-01-27T20:00:26.035Z,4.76
2023-01-27T20:02:53.039Z,4.67
2023-01-27T20:05:20.078Z,4.67
2023-01-27T20:07:47.127Z,4.64
2023-01-27T20:10:20.173Z,4.50
2023-01-27T20:13:01.160Z,4.75
2023-01-27T20:15:33.360Z,4.28
2023-01-27T20:18:00.413Z,4.21
2023-01-27T20:20:27.904Z,4.56
2023-01-27T20:22:55.102Z,4.67
2023-01-27T20:25:23.954Z,4.66
2023-01-27T20:27:53.531Z,4.53
2023-01-27T20:30:22.503Z,4.59
2023-01-27T20:32:49.596Z,4.64
2023-01-27T20:35:17.859Z,4.65
2023-01-27T20:37:46.835Z,4.75
2023-01-27T20:40:16.199Z,4.36
2023-01-27T20:42:43.137Z,4.44
2023-01-27T20:45:10.255Z,4.63
2023-01-27T20:47:37.247Z,4.44
2023-01-27T20:50:06.586Z,4.45
2023-01-27T20:52:37.327Z,4.38
2023-01-27T20:55:05.265Z,4.72
2023-01-27T20:57:32.202Z,4.70
2023-01-27T20:59:59.899Z,4.59
2023-01-27T21:02:29.159Z,4.53
2023-01-27T21:04:56.216Z,4.62
2023-01-27T21:07:23.784Z,4.36
2023-01-27T21:09:51.362Z,4.30
2023-01-27T21:12:18.514Z,4.03
2023-01-27T21:14:46.054Z,4.10
2023-01-27T21:17:13.030Z,4.31
2023-01-27T21:19:39.952Z,4.35
2023-01-27T21:22:06.909Z,4.30
2023-01-27T21:24:33.874Z,4.39
2023-01-27T21:27:00.860Z,3.74
2023-01-27T21:29:27.788Z,4.47
2023-01-27T21:31:54.769Z,4.63
2023-01-27T21:34:21.972Z,4.34
2023-01-27T21:36:49.375Z,4.34
2023-01-27T21:39:16.414Z,4.61
2023-01-27T21:41:55.185Z,3.80
2023-01-27T21:44:46.059Z,4.61
2023-01-27T21:47:17.685Z,4.34
2023-01-27T21:50:01.219Z,4.36
2023-01-27T21:52:33.684Z,4.54
2023-01-27T21:55:01.804Z,4.43
2023-01-27T21:57:29.756Z,4.49
2023-01-27T21:59:56.690Z,4.22
2023-01-27T22:02:23.677Z,4.45
2023-01-27T22:04:50.756Z,4.46
2023-01-27T22:07:18.553Z,4.38
2023-01-27T22:09:48.433Z,4.32
2023-01-27T22:12:16.420Z,4.47
2023-01-27T22:14:43.797Z,4.18
2023-01-27T22:17:10.906Z,4.31
2023-01-27T22:19:39.197Z,4.28
2023-01-27T22:22:10.520Z,4.46
2023-01-27T22:24:37.476Z,4.11
2023-01-27T22:27:04.813Z,4.35
2023-01-27T22:29:31.718Z,3.92
2023-01-27T22:31:59.095Z,4.11
2023-01-27T22:34:27.006Z,4.39
2023-01-27T22:36:53.972Z,4.14
2023-01-27T22:39:20.933Z,4.39
2023-01-27T22:41:47.878Z,4.12
2023-01-27T22:44:15.025Z,4.14
2023-01-27T22:46:42.798Z,4.26
2023-01-27T22:49:10.422Z,4.15
2023-01-27T22:51:37.369Z,3.63
2023-01-27T22:54:04.440Z,3.90
2023-01-27T22:56:31.439Z,4.15
2023-01-27T22:58:58.810Z,4.14
2023-01-27T23:01:25.866Z,4.06
2023-01-27T23:03:52.796Z,4.20
2023-01-27T23:06:19.743Z,4.02
2023-01-27T23:08:46.709Z,4.24
2023-01-27T23:11:13.609Z,3.84
2023-01-27T23:13:40.580Z,4.34
2023-01-27T23:16:07.670Z,3.99
2023-01-27T23:18:34.641Z,3.92
2023-01-27T23:21:06.816Z,4.16
2023-01-27T23:23:36.707Z,3.66
2023-01-27T23:26:07.947Z,4.14
2023-01-27T23:28:35.464Z,4.13
2023-01-27T23:31:02.523Z,4.09
2023-01-27T23:33:34.015Z,3.84
2023-01-27T23:36:00.957Z,4.26
2023-01-27T23:38:33.001Z,3.98
2023-01-27T23:41:05.046Z,3.98
2023-01-27T23:43:32.166Z,3.75
2023-01-27T23:46:00.004Z,4.16
2023-01-27T23:48:27.868Z,4.23
2023-01-27T23:50:55.035Z,3.89
2023-01-27T23:53:22.253Z,3.97
2023-01-27T23:56:01.335Z,3.96
2023-01-27T23:58:28.744Z,3.85
